createdAt,value
2017-04-28T00:01:12.905Z,15.83
2017-04-28T00:02:12.844Z,16.69
2017-04-28T00:03:12.778Z,16.31
2017-04-28T00:04:12.410Z,16.31
2017-04-28T00:05:12.651Z,16.11
2017-04-28T00:06:12.591Z,16.69
2017-04-28T00:07:12.226Z,16.41
2017-04-28T00:08:12.461Z,16.21
2017-04-28T00:09:12.404Z,16.31
2017-04-28T00:10:12.336Z,16.21
2017-04-28T00:11:12.273Z,16.21
2017-04-28T00:12:12.211Z,15.92
2017-04-28T00:13:12.149Z,16.6
2017-04-28T00:14:12.087Z,16.5
2017-04-28T00:15:12.022Z,16.79
2017-04-28T00:16:11.960Z,16.21
2017-04-28T00:17:11.897Z,16.5
2017-04-28T00:18:11.836Z,16.41
2017-04-28T00:19:11.769Z,16.41
2017-04-28T00:20:11.707Z,16.41
2017-04-28T00:21:11.645Z,16.41
2017-04-28T00:22:11.581Z,16.5
2017-04-28T00:23:11.527Z,16.5
2017-04-28T00:24:11.456Z,16.41
2017-04-28T00:25:11.399Z,16.5
2017-04-28T00:26:11.329Z,16.41
2017-04-28T00:27:11.269Z,16.6
2017-04-28T00:28:11.205Z,16.69
2017-04-28T00:29:11.142Z,16.41
2017-04-28T00:30:11.078Z,16.6
2017-04-28T00:31:11.018Z,16.6
2017-04-28T00:32:10.954Z,16.5
2017-04-28T00:33:10.587Z,16.5
2017-04-28T00:34:10.830Z,16.5
2017-04-28T00:35:10.862Z,16.31
2017-04-28T00:36:10.400Z,16.6
2017-04-28T00:37:10.638Z,16.6
2017-04-28T00:38:10.575Z,16.5
2017-04-28T00:39:10.514Z,16.6
2017-04-28T00:40:10.450Z,16.5
2017-04-28T00:41:10.395Z,16.6
2017-04-28T00:42:10.325Z,16.5
2017-04-28T00:43:10.266Z,16.5
2017-04-28T00:44:10.201Z,16.41
2017-04-28T00:45:10.142Z,16.5
2017-04-28T00:46:09.771Z,16.31
2017-04-28T00:47:10.011Z,16.21
2017-04-28T00:48:09.952Z,16.21
2017-04-28T00:49:09.591Z,16.6
2017-04-28T00:50:09.925Z,16.21
2017-04-28T00:51:09.762Z,16.31
2017-04-28T00:52:09.412Z,16.5
2017-04-28T00:53:09.344Z,16.6
2017-04-28T00:54:09.572Z,16.21
2017-04-28T00:55:09.759Z,16.31
2017-04-28T00:56:09.143Z,16.21
2017-04-28T00:57:09.381Z,16.31
2017-04-28T00:58:09.017Z,16.6
2017-04-28T00:59:09.278Z,16.21
2017-04-28T01:00:09.195Z,16.31
2017-04-28T01:01:09.131Z,16.31
2017-04-28T01:02:09.077Z,16.31
2017-04-28T01:03:09.005Z,16.31
2017-04-28T01:04:08.943Z,16.31
2017-04-28T01:05:08.887Z,16.21
2017-04-28T01:06:08.824Z,16.5
2017-04-28T01:07:08.450Z,16.21
2017-04-28T01:08:08.691Z,16.21
2017-04-28T01:09:08.628Z,16.31
2017-04-28T01:10:08.266Z,16.21
2017-04-28T01:11:08.504Z,16.31
2017-04-28T01:12:08.443Z,16.11
2017-04-28T01:13:08.383Z,16.11
2017-04-28T01:14:08.313Z,16.11
2017-04-28T01:15:08.262Z,16.41
2017-04-28T01:16:07.885Z,16.41
2017-04-28T01:17:08.131Z,16.11
2017-04-28T01:18:08.061Z,16.11
2017-04-28T01:19:07.999Z,16.21
2017-04-28T01:20:07.938Z,16.11
2017-04-28T01:21:07.873Z,16.11
2017-04-28T01:22:07.810Z,16.11
2017-04-28T01:23:07.748Z,16.41
2017-04-28T01:24:07.685Z,16.11
2017-04-28T01:25:07.621Z,16.11
2017-04-28T01:26:07.563Z,16.21
2017-04-28T01:27:07.499Z,16.11
2017-04-28T01:28:07.435Z,16.11
2017-04-28T01:29:07.371Z,16.31
2017-04-28T01:30:07.002Z,16.21
2017-04-28T01:31:07.246Z,16.11
2017-04-28T01:32:07.180Z,16.41
2017-04-28T01:33:07.120Z,16.11
2017-04-28T01:34:07.056Z,16.5
2017-04-28T01:35:06.993Z,16.5
2017-04-28T01:36:06.631Z,16.5
2017-04-28T01:37:06.869Z,16.31
2017-04-28T01:38:06.806Z,16.5
2017-04-28T01:39:06.741Z,16.5
2017-04-28T01:40:06.680Z,16.6
2017-04-28T01:41:06.619Z,16.11
2017-04-28T01:42:06.560Z,16.6
2017-04-28T01:43:06.490Z,16.6
2017-04-28T01:44:06.426Z,16.5
2017-04-28T01:45:06.364Z,16.5
2017-04-28T01:46:06.302Z,16.6
2017-04-28T01:47:06.242Z,16.5
2017-04-28T01:48:06.176Z,16.6
2017-04-28T01:49:06.116Z,16.5
2017-04-28T01:50:06.049Z,16.5
2017-04-28T01:51:05.990Z,16.02
2017-04-28T01:52:05.924Z,16.5
2017-04-28T01:53:05.862Z,16.5
2017-04-28T01:54:05.799Z,16.5
2017-04-28T01:55:05.738Z,16.89
2017-04-28T01:56:05.673Z,16.89
2017-04-28T01:57:05.614Z,16.6
2017-04-28T01:58:05.554Z,16.89
2017-04-28T01:59:05.485Z,16.6
2017-04-28T02:00:05.446Z,16.5
2017-04-28T02:01:05.359Z,16.6
2017-04-28T02:02:05.305Z,16.69
2017-04-28T02:03:05.236Z,16.69
2017-04-28T02:04:05.171Z,16.79
2017-04-28T02:05:05.107Z,16.89
2017-04-28T02:06:05.043Z,16.89
2017-04-28T02:07:04.985Z,16.6
2017-04-28T02:08:04.922Z,16.89
2017-04-28T02:09:04.861Z,16.69
2017-04-28T02:10:04.795Z,16.99
2017-04-28T02:11:04.730Z,16.99
2017-04-28T02:12:04.678Z,16.69
2017-04-28T02:13:04.610Z,16.99
2017-04-28T02:14:04.543Z,16.69
2017-04-28T02:15:04.494Z,16.89
2017-04-28T02:16:04.125Z,16.79
2017-04-28T02:17:04.369Z,16.69
2017-04-28T02:18:04.291Z,16.6
2017-04-28T02:19:04.230Z,16.6
2017-04-28T02:20:04.209Z,16.69
2017-04-28T02:21:04.101Z,16.6
2017-04-28T02:22:04.040Z,16.89
2017-04-28T02:23:03.974Z,16.89
2017-04-28T02:24:03.914Z,16.89
2017-04-28T02:25:03.859Z,16.89
2017-04-28T02:26:03.789Z,16.89
2017-04-28T02:27:03.725Z,16.89
2017-04-28T02:28:03.659Z,16.89
2017-04-28T02:29:03.599Z,16.99
2017-04-28T02:30:03.535Z,16.89
2017-04-28T02:31:03.171Z,16.89
2017-04-28T02:32:03.413Z,16.89
2017-04-28T02:33:03.348Z,16.89
2017-04-28T02:34:03.283Z,16.89
2017-04-28T02:35:03.223Z,16.89
2017-04-28T02:36:03.161Z,16.69
2017-04-28T02:37:03.095Z,16.89
2017-04-28T02:38:03.061Z,16.69
2017-04-28T02:39:02.970Z,16.79
2017-04-28T02:40:02.904Z,16.69
2017-04-28T02:41:02.841Z,16.79
2017-04-28T02:42:02.780Z,16.6
2017-04-28T02:43:02.718Z,16.69
2017-04-28T02:44:02.654Z,16.99
2017-04-28T02:45:02.592Z,16.99
2017-04-28T02:46:02.528Z,16.6
2017-04-28T02:47:02.467Z,16.99
2017-04-28T02:48:02.402Z,16.69
2017-04-28T02:49:02.341Z,16.69
2017-04-28T02:50:02.284Z,16.69
2017-04-28T02:51:02.214Z,16.6
2017-04-28T02:52:02.148Z,16.89
2017-04-28T02:53:02.095Z,16.6
2017-04-28T02:54:02.025Z,16.89
2017-04-28T02:55:01.968Z,16.89
2017-04-28T02:56:01.900Z,16.6
2017-04-28T02:57:01.836Z,17.08
2017-04-28T02:58:01.774Z,16.79
2017-04-28T02:59:01.714Z,17.08
2017-04-28T03:00:01.653Z,16.99
2017-04-28T03:01:01.585Z,16.89
2017-04-28T03:02:01.521Z,16.69
2017-04-28T03:03:01.459Z,16.89
2017-04-28T03:04:01.397Z,16.89
2017-04-28T03:05:01.341Z,16.99
2017-04-28T03:06:01.271Z,16.99
2017-04-28T03:07:01.209Z,16.99
2017-04-28T03:08:01.145Z,16.99
2017-04-28T03:09:01.083Z,16.99
2017-04-28T03:10:01.022Z,16.99
2017-04-28T03:11:00.955Z,16.69
2017-04-28T03:12:00.893Z,16.69
2017-04-28T03:13:00.837Z,17.08
2017-04-28T03:14:00.773Z,16.99
2017-04-28T03:15:00.710Z,16.89
2017-04-28T03:16:00.644Z,16.99
2017-04-28T03:17:00.578Z,16.89
2017-04-28T03:18:00.516Z,16.99
2017-04-28T03:19:00.455Z,16.89
2017-04-28T03:20:00.392Z,16.89
2017-04-28T03:21:00.324Z,16.99
2017-04-28T03:22:00.268Z,16.99
2017-04-28T03:23:00.205Z,16.79
2017-04-28T03:24:00.137Z,16.89
2017-04-28T03:25:00.076Z,16.89
2017-04-28T03:26:00.016Z,16.79
2017-04-28T03:26:59.948Z,16.89
2017-04-28T03:27:59.890Z,16.89
2017-04-28T03:28:59.827Z,16.89
2017-04-28T03:29:59.769Z,16.89
2017-04-28T03:30:59.699Z,16.89
2017-04-28T03:31:59.639Z,16.89
2017-04-28T03:32:59.582Z,16.99
2017-04-28T03:33:59.511Z,16.99
2017-04-28T03:34:59.452Z,16.99
2017-04-28T03:35:59.384Z,17.08
2017-04-28T03:36:59.323Z,16.89
2017-04-28T03:37:58.961Z,16.89
2017-04-28T03:38:58.891Z,16.89
2017-04-28T03:39:59.132Z,16.89
2017-04-28T03:40:59.067Z,16.89
2017-04-28T03:41:59.006Z,17.08
2017-04-28T03:42:58.944Z,16.89
2017-04-28T03:43:58.879Z,16.89
2017-04-28T03:44:58.817Z,16.89
2017-04-28T03:45:58.765Z,16.89
2017-04-28T03:46:58.691Z,16.99
2017-04-28T03:47:58.630Z,16.89
2017-04-28T03:48:58.565Z,16.89
2017-04-28T03:49:58.503Z,16.99
2017-04-28T03:50:58.445Z,16.89
2017-04-28T03:51:58.381Z,16.99
2017-04-28T03:52:58.313Z,16.89
2017-04-28T03:53:58.251Z,17.08
2017-04-28T03:54:58.193Z,17.08
2017-04-28T03:55:58.124Z,16.89
2017-04-28T03:56:58.065Z,16.99
2017-04-28T03:57:58.038Z,16.89
2017-04-28T03:58:57.935Z,16.89
2017-04-28T03:59:57.570Z,16.89
2017-04-28T04:00:57.815Z,16.79
2017-04-28T04:01:57.746Z,16.99
2017-04-28T04:02:57.685Z,17.27
2017-04-28T04:03:57.621Z,16.99
2017-04-28T04:04:57.558Z,17.08
2017-04-28T04:05:57.494Z,16.89
2017-04-28T04:06:57.434Z,16.89
2017-04-28T04:07:57.371Z,16.89
2017-04-28T04:08:57.308Z,17.08
2017-04-28T04:09:57.244Z,16.99
2017-04-28T04:10:57.179Z,16.89
2017-04-28T04:11:57.124Z,16.89
2017-04-28T04:12:57.053Z,17.27
2017-04-28T04:13:56.993Z,17.37
2017-04-28T04:14:56.934Z,17.56
2017-04-28T04:15:56.873Z,17.18
2017-04-28T04:16:56.809Z,17.37
2017-04-28T04:17:56.742Z,17.47
2017-04-28T04:18:56.684Z,17.08
2017-04-28T04:19:56.615Z,17.18
2017-04-28T04:20:56.565Z,17.18
2017-04-28T04:21:56.500Z,17.18
2017-04-28T04:22:56.425Z,17.08
2017-04-28T04:23:56.362Z,17.08
2017-04-28T04:24:56.301Z,17.08
2017-04-28T04:25:56.236Z,16.99
2017-04-28T04:26:56.171Z,17.18
2017-04-28T04:27:56.111Z,16.99
2017-04-28T04:28:56.048Z,16.99
2017-04-28T04:29:55.988Z,16.99
2017-04-28T04:30:55.922Z,17.66
2017-04-28T04:31:55.857Z,17.47
2017-04-28T04:32:55.802Z,17.56
2017-04-28T04:33:55.734Z,17.76
2017-04-28T04:34:55.371Z,17.47
2017-04-28T04:35:55.606Z,17.76
2017-04-28T04:36:55.543Z,17.56
2017-04-28T04:37:55.483Z,17.66
2017-04-28T04:38:55.421Z,17.37
2017-04-28T04:39:55.355Z,17.18
2017-04-28T04:40:54.988Z,17.18
2017-04-28T04:41:55.227Z,17.27
2017-04-28T04:42:55.175Z,17.18
2017-04-28T04:43:55.105Z,17.47
2017-04-28T04:44:55.043Z,17.47
2017-04-28T04:45:54.976Z,17.47
2017-04-28T04:46:54.914Z,17.56
2017-04-28T04:47:54.856Z,17.66
2017-04-28T04:48:54.789Z,17.56
2017-04-28T04:49:54.729Z,17.66
2017-04-28T04:50:54.664Z,17.66
2017-04-28T04:51:54.602Z,17.56
2017-04-28T04:52:54.540Z,17.66
2017-04-28T04:53:54.474Z,17.56
2017-04-28T04:54:54.413Z,17.66
2017-04-28T04:55:54.354Z,17.76
2017-04-28T04:56:54.285Z,17.95
2017-04-28T04:57:54.277Z,17.85
2017-04-28T04:58:54.158Z,17.95
2017-04-28T04:59:54.101Z,17.85
2017-04-28T05:00:54.032Z,18.04
2017-04-28T05:01:53.970Z,18.04
2017-04-28T05:02:53.604Z,17.85
2017-04-28T05:03:53.845Z,17.56
2017-04-28T05:04:53.830Z,18.04
2017-04-28T05:05:53.820Z,17.85
2017-04-28T05:06:53.662Z,17.85
2017-04-28T05:07:53.594Z,18.04
2017-04-28T05:08:53.529Z,18.14
2017-04-28T05:09:53.465Z,18.14
2017-04-28T05:10:53.400Z,18.14
2017-04-28T05:11:53.339Z,18.14
2017-04-28T05:12:53.275Z,18.04
2017-04-28T05:13:53.213Z,17.85
2017-04-28T05:14:53.152Z,18.24
2017-04-28T05:15:53.088Z,18.14
2017-04-28T05:16:53.029Z,18.14
2017-04-28T05:17:52.965Z,18.14
2017-04-28T05:18:52.930Z,17.85
2017-04-28T05:19:52.834Z,18.14
2017-04-28T05:20:52.772Z,18.14
2017-04-28T05:21:52.710Z,17.85
2017-04-28T05:22:52.645Z,17.85
2017-04-28T05:23:52.587Z,18.04
2017-04-28T05:24:52.583Z,17.95
2017-04-28T05:25:52.458Z,18.24
2017-04-28T05:26:52.394Z,18.04
2017-04-28T05:27:52.332Z,17.95
2017-04-28T05:28:52.268Z,17.85
2017-04-28T05:29:52.214Z,17.56
2017-04-28T05:30:52.148Z,17.85
2017-04-28T05:31:52.083Z,17.85
2017-04-28T05:32:52.020Z,17.56
2017-04-28T05:33:51.954Z,17.47
2017-04-28T05:34:51.889Z,17.56
2017-04-28T05:35:51.830Z,17.56
2017-04-28T05:36:51.768Z,17.56
2017-04-28T05:37:51.702Z,17.76
2017-04-28T05:38:51.637Z,17.66
2017-04-28T05:39:51.575Z,17.66
2017-04-28T05:40:51.511Z,17.66
2017-04-28T05:41:51.449Z,17.66
2017-04-28T05:42:51.391Z,17.66
2017-04-28T05:43:51.322Z,17.66
2017-04-28T05:44:51.270Z,17.66
2017-04-28T05:45:51.198Z,17.76
2017-04-28T05:46:51.134Z,17.76
2017-04-28T05:47:51.073Z,17.47
2017-04-28T05:48:51.008Z,17.76
2017-04-28T05:49:50.945Z,17.66
2017-04-28T05:50:50.884Z,17.66
2017-04-28T05:51:50.820Z,17.76
2017-04-28T05:52:50.759Z,17.56
2017-04-28T05:53:50.698Z,17.66
2017-04-28T05:54:50.636Z,17.76
2017-04-28T05:55:50.570Z,17.66
2017-04-28T05:56:50.506Z,17.76
2017-04-28T05:57:50.445Z,17.56
2017-04-28T05:58:50.377Z,17.95
2017-04-28T05:59:50.315Z,17.85
2017-04-28T06:00:50.267Z,17.85
2017-04-28T06:01:50.188Z,17.66
2017-04-28T06:02:50.126Z,17.66
2017-04-28T06:03:50.062Z,17.85
2017-04-28T06:04:49.999Z,17.76
2017-04-28T06:05:49.935Z,17.85
2017-04-28T06:06:49.874Z,17.85
2017-04-28T06:07:49.813Z,18.04
2017-04-28T06:08:49.752Z,17.66
2017-04-28T06:09:49.687Z,17.95
2017-04-28T06:10:49.624Z,17.95
2017-04-28T06:11:49.560Z,17.85
2017-04-28T06:12:49.496Z,17.95
2017-04-28T06:13:49.433Z,17.85
2017-04-28T06:14:49.368Z,17.95
2017-04-28T06:15:49.456Z,17.66
2017-04-28T06:16:49.244Z,17.95
2017-04-28T06:17:49.182Z,18.04
2017-04-28T06:18:49.159Z,17.95
2017-04-28T06:19:49.066Z,18.14
2017-04-28T06:20:48.993Z,17.85
2017-04-28T06:21:48.928Z,17.95
2017-04-28T06:22:48.867Z,17.95
2017-04-28T06:23:48.813Z,17.85
2017-04-28T06:24:48.740Z,17.85
2017-04-28T06:25:48.678Z,17.95
2017-04-28T06:26:48.618Z,17.95
2017-04-28T06:27:48.552Z,17.95
2017-04-28T06:28:48.493Z,17.95
2017-04-28T06:29:48.426Z,17.66
2017-04-28T06:30:48.362Z,17.76
2017-04-28T06:31:48.303Z,17.95
2017-04-28T06:32:48.238Z,17.95
2017-04-28T06:33:48.176Z,17.85
2017-04-28T06:34:48.123Z,18.24
2017-04-28T06:35:48.058Z,18.04
2017-04-28T06:36:47.989Z,17.85
2017-04-28T06:37:47.923Z,17.95
2017-04-28T06:38:47.859Z,17.95
2017-04-28T06:39:47.795Z,17.66
2017-04-28T06:40:47.734Z,17.95
2017-04-28T06:41:47.367Z,17.95
2017-04-28T06:42:47.606Z,17.76
2017-04-28T06:43:47.544Z,17.85
2017-04-28T06:44:47.481Z,17.56
2017-04-28T06:45:47.417Z,17.85
2017-04-28T06:46:47.355Z,17.56
2017-04-28T06:47:47.292Z,17.85
2017-04-28T06:48:47.231Z,17.85
2017-04-28T06:49:47.166Z,17.56
2017-04-28T06:50:47.103Z,17.76
2017-04-28T06:51:47.041Z,17.85
2017-04-28T06:52:46.978Z,17.76
2017-04-28T06:53:46.914Z,17.76
2017-04-28T06:54:46.852Z,17.76
2017-04-28T06:55:46.789Z,17.76
2017-04-28T06:56:46.425Z,17.76
2017-04-28T06:57:46.664Z,17.76
2017-04-28T06:58:46.602Z,17.76
2017-04-28T06:59:46.539Z,17.66
2017-04-28T07:00:46.474Z,17.66
2017-04-28T07:01:46.411Z,17.56
2017-04-28T07:02:46.349Z,17.85
2017-04-28T07:03:46.286Z,17.56
2017-04-28T07:04:46.223Z,17.66
2017-04-28T07:05:46.159Z,17.66
2017-04-28T07:06:46.100Z,17.76
2017-04-28T07:07:46.036Z,17.76
2017-04-28T07:08:45.971Z,17.66
2017-04-28T07:09:45.908Z,17.66
2017-04-28T07:10:45.847Z,17.66
2017-04-28T07:11:45.785Z,17.66
2017-04-28T07:12:45.721Z,17.66
2017-04-28T07:13:45.657Z,17.66
2017-04-28T07:14:45.596Z,17.66
2017-04-28T07:15:45.542Z,17.66
2017-04-28T07:16:45.472Z,17.66
2017-04-28T07:17:45.404Z,17.66
2017-04-28T07:18:45.341Z,17.56
2017-04-28T07:19:45.279Z,17.66
2017-04-28T07:20:45.215Z,17.76
2017-04-28T07:21:45.160Z,17.66
2017-04-28T07:22:45.123Z,17.66
2017-04-28T07:23:45.026Z,17.76
2017-04-28T07:24:45.064Z,17.76
2017-04-28T07:25:44.900Z,17.76
2017-04-28T07:26:44.838Z,17.56
2017-04-28T07:27:44.778Z,17.76
2017-04-28T07:28:44.747Z,17.56
2017-04-28T07:29:44.650Z,17.76
2017-04-28T07:30:44.595Z,17.66
2017-04-28T07:31:44.524Z,17.56
2017-04-28T07:32:44.469Z,17.66
2017-04-28T07:33:44.095Z,17.76
2017-04-28T07:34:44.341Z,17.56
2017-04-28T07:35:44.272Z,17.66
2017-04-28T07:36:44.216Z,17.56
2017-04-28T07:37:43.846Z,17.66
2017-04-28T07:38:44.083Z,17.76
2017-04-28T07:39:44.021Z,17.56
2017-04-28T07:40:43.957Z,17.95
2017-04-28T07:41:43.604Z,17.85
2017-04-28T07:42:43.833Z,17.56
2017-04-28T07:43:43.772Z,17.66
2017-04-28T07:44:43.707Z,18.04
2017-04-28T07:45:43.679Z,18.04
2017-04-28T07:46:43.586Z,18.14
2017-04-28T07:47:43.591Z,18.14
2017-04-28T07:48:43.469Z,17.95
2017-04-28T07:49:43.394Z,17.95
2017-04-28T07:50:43.360Z,17.85
2017-04-28T07:51:43.270Z,18.14
2017-04-28T07:52:43.209Z,18.14
2017-04-28T07:53:43.143Z,17.85
2017-04-28T07:54:43.146Z,18.14
2017-04-28T07:55:43.018Z,18.14
2017-04-28T07:56:42.954Z,18.14
2017-04-28T07:57:42.896Z,18.04
2017-04-28T07:58:42.827Z,17.85
2017-04-28T07:59:42.770Z,17.85
2017-04-28T08:00:42.708Z,17.85
2017-04-28T08:01:42.641Z,18.04
2017-04-28T08:02:42.576Z,18.14
2017-04-28T08:03:42.514Z,17.95
2017-04-28T08:04:42.149Z,17.85
2017-04-28T08:05:42.395Z,18.14
2017-04-28T08:06:42.327Z,18.14
2017-04-28T08:07:42.264Z,18.14
2017-04-28T08:08:42.237Z,17.47
2017-04-28T08:09:42.138Z,17.18
2017-04-28T08:10:42.077Z,17.66
2017-04-28T08:11:42.011Z,17.08
2017-04-28T08:12:41.949Z,16.99
2017-04-28T08:13:41.941Z,17.08
2017-04-28T08:14:41.861Z,16.99
2017-04-28T08:15:41.764Z,17.08
2017-04-28T08:16:41.698Z,17.18
2017-04-28T08:17:41.637Z,17.08
2017-04-28T08:18:41.789Z,17.18
2017-04-28T08:19:41.512Z,17.27
2017-04-28T08:20:41.447Z,17.37
2017-04-28T08:21:41.605Z,17.18
2017-04-28T08:22:41.386Z,17.18
2017-04-28T08:23:41.264Z,17.27
2017-04-28T08:24:41.195Z,16.89
2017-04-28T08:25:41.133Z,16.79
2017-04-28T08:26:41.075Z,16.99
2017-04-28T08:27:41.011Z,16.99
2017-04-28T08:28:40.944Z,16.89
2017-04-28T08:29:40.884Z,16.99
2017-04-28T08:30:40.823Z,16.89
2017-04-28T08:31:40.756Z,16.89
2017-04-28T08:32:40.725Z,16.99
2017-04-28T08:33:40.328Z,16.89
2017-04-28T08:34:40.575Z,16.89
2017-04-28T08:35:40.523Z,16.69
2017-04-28T08:36:40.445Z,16.69
2017-04-28T08:37:40.389Z,16.99
2017-04-28T08:38:40.315Z,16.79
2017-04-28T08:39:40.254Z,16.89
2017-04-28T08:40:40.192Z,16.69
2017-04-28T08:41:40.128Z,16.6
2017-04-28T08:42:40.080Z,16.6
2017-04-28T08:43:40.006Z,16.5
2017-04-28T08:44:39.983Z,16.11
2017-04-28T08:45:39.878Z,16.11
2017-04-28T08:46:39.813Z,16.21
2017-04-28T08:47:39.751Z,16.21
2017-04-28T08:48:39.690Z,16.6
2017-04-28T08:49:39.626Z,16.5
2017-04-28T08:50:39.262Z,16.5
2017-04-28T08:51:39.197Z,16.5
2017-04-28T08:52:39.436Z,16.31
2017-04-28T08:53:39.618Z,16.02
2017-04-28T08:54:39.010Z,16.02
2017-04-28T08:55:39.260Z,16.02
2017-04-28T08:56:39.281Z,15.83
2017-04-28T08:57:39.178Z,16.21
2017-04-28T08:58:39.188Z,16.11
2017-04-28T08:59:39.047Z,16.11
2017-04-28T09:00:38.968Z,16.02
2017-04-28T09:01:38.903Z,16.21
2017-04-28T09:02:38.826Z,16.11
2017-04-28T09:03:38.789Z,16.02
2017-04-28T09:04:38.387Z,15.92
2017-04-28T09:05:38.321Z,16.02
2017-04-28T09:06:38.562Z,16.02
2017-04-28T09:07:38.500Z,16.02
2017-04-28T09:08:38.472Z,16.02
2017-04-28T09:09:38.371Z,15.92
2017-04-28T09:10:38.307Z,15.92
2017-04-28T09:11:38.248Z,16.02
2017-04-28T09:12:38.180Z,15.83
2017-04-28T09:13:38.215Z,16.02
2017-04-28T09:14:38.206Z,16.11
2017-04-28T09:15:38.055Z,16.79
2017-04-28T09:16:37.669Z,17.47
2017-04-28T09:17:37.567Z,17.56
2017-04-28T09:18:37.807Z,17.56
2017-04-28T09:19:37.739Z,18.43
2017-04-28T09:20:37.677Z,19.01
2017-04-28T09:21:37.683Z,19.12
2017-04-28T09:22:37.554Z,19.4
2017-04-28T09:23:37.488Z,19.6
2017-04-28T09:24:37.429Z,19.79
2017-04-28T09:25:37.365Z,20.08
2017-04-28T09:26:37.301Z,20.37
2017-04-28T09:27:37.238Z,20.28
2017-04-28T09:28:37.177Z,20.47
2017-04-28T09:29:37.112Z,20.56
2017-04-28T09:30:37.076Z,21.14
2017-04-28T09:31:36.993Z,21.44
2017-04-28T09:32:36.926Z,21.72
2017-04-28T09:33:36.863Z,21.82
2017-04-28T09:34:36.807Z,22.11
2017-04-28T09:35:36.737Z,22.2
2017-04-28T09:36:36.677Z,22.59
2017-04-28T09:37:36.612Z,22.3
2017-04-28T09:38:36.549Z,22.98
2017-04-28T09:39:36.486Z,22.5
2017-04-28T09:40:36.424Z,22.78
2017-04-28T09:41:36.361Z,22.59
2017-04-28T09:42:36.305Z,23.08
2017-04-28T09:43:36.238Z,23.27
2017-04-28T09:44:36.176Z,23.27
2017-04-28T09:45:36.122Z,23.08
2017-04-28T09:46:36.053Z,23.17
2017-04-28T09:47:36.002Z,23.65
2017-04-28T09:48:35.926Z,23.46
2017-04-28T09:49:35.871Z,23.65
2017-04-28T09:50:35.801Z,23.94
2017-04-28T09:51:35.749Z,23.85
2017-04-28T09:52:35.673Z,23.85
2017-04-28T09:53:35.623Z,24.14
2017-04-28T09:54:35.299Z,24.24
2017-04-28T09:55:35.503Z,24.62
2017-04-28T09:56:35.126Z,24.81
2017-04-28T09:57:35.368Z,24.91
2017-04-28T09:58:35.302Z,24.72
2017-04-28T09:59:35.239Z,25.12
2017-04-28T10:00:35.178Z,25.2
2017-04-28T10:01:35.120Z,25.2
2017-04-28T10:02:35.049Z,25.12
2017-04-28T10:03:35.013Z,25.02
2017-04-28T10:04:34.927Z,25.31
2017-04-28T10:05:34.864Z,25.4
2017-04-28T10:06:34.802Z,25.5
2017-04-28T10:07:34.738Z,25.6
2017-04-28T10:08:34.681Z,25.7
2017-04-28T10:09:34.615Z,25.7
2017-04-28T10:10:34.553Z,25.7
2017-04-28T10:11:34.490Z,25.6
2017-04-28T10:12:34.436Z,25.6
2017-04-28T10:13:34.364Z,25.7
2017-04-28T10:14:34.305Z,25.6
2017-04-28T10:15:34.240Z,25.7
2017-04-28T10:16:34.181Z,25.7
2017-04-28T10:17:34.126Z,25.89
2017-04-28T10:18:34.054Z,25.6
2017-04-28T10:19:33.995Z,25.7
2017-04-28T10:20:33.633Z,25.79
2017-04-28T10:21:33.573Z,25.7
2017-04-28T10:22:33.804Z,25.98
2017-04-28T10:23:33.750Z,25.4
2017-04-28T10:24:33.682Z,24.73
2017-04-28T10:25:33.618Z,25.12
2017-04-28T10:26:33.558Z,25.02
2017-04-28T10:27:33.496Z,25.02
2017-04-28T10:28:33.432Z,25.12
2017-04-28T10:29:33.377Z,25.12
2017-04-28T10:30:33.309Z,25.12
2017-04-28T10:31:33.250Z,25.12
2017-04-28T10:32:33.186Z,25.02
2017-04-28T10:33:33.121Z,25.02
2017-04-28T10:34:33.059Z,25.21
2017-04-28T10:35:33.015Z,25.02
2017-04-28T10:36:32.950Z,24.92
2017-04-28T10:37:32.876Z,25.12
2017-04-28T10:38:32.829Z,24.82
2017-04-28T10:39:32.751Z,24.82
2017-04-28T10:40:32.691Z,24.82
2017-04-28T10:41:32.325Z,24.82
2017-04-28T10:42:32.265Z,24.82
2017-04-28T10:43:32.199Z,24.44
2017-04-28T10:44:32.443Z,23.57
2017-04-28T10:45:32.381Z,23.08
2017-04-28T10:46:32.317Z,21.73
2017-04-28T10:47:32.254Z,21.83
2017-04-28T10:48:31.891Z,20.38
2017-04-28T10:49:32.133Z,20.19
2017-04-28T10:50:32.097Z,19.61
2017-04-28T10:51:32.007Z,19.22
2017-04-28T10:52:31.948Z,19.42
2017-04-28T10:53:31.881Z,19.03
2017-04-28T10:54:31.518Z,18.74
2017-04-28T10:55:31.910Z,18.16
2017-04-28T10:56:31.699Z,18.06
2017-04-28T10:57:31.333Z,17.58
2017-04-28T10:58:31.572Z,17.77
2017-04-28T10:59:31.543Z,17.48
2017-04-28T11:00:31.452Z,17.29
2017-04-28T11:01:31.389Z,16.9
2017-04-28T11:02:31.325Z,17
2017-04-28T11:03:30.963Z,17
2017-04-28T11:04:31.203Z,17
2017-04-28T11:05:31.142Z,16.9
2017-04-28T11:06:31.078Z,17
2017-04-28T11:07:31.017Z,16.9
2017-04-28T11:08:30.953Z,16.9
2017-04-28T11:09:30.892Z,16.13
2017-04-28T11:10:30.829Z,15.94
2017-04-28T11:11:30.467Z,15.94
2017-04-28T11:12:30.704Z,16.32
2017-04-28T11:13:30.643Z,16.03
2017-04-28T11:14:30.581Z,16.03
2017-04-28T11:15:30.518Z,16.03
2017-04-28T11:16:30.457Z,16.13
2017-04-28T11:17:30.394Z,15.94
2017-04-28T11:18:30.343Z,15.74
2017-04-28T11:19:30.271Z,15.55
2017-04-28T11:20:30.221Z,15.74
2017-04-28T11:21:30.147Z,15.84
2017-04-28T11:22:30.086Z,15.84
2017-04-28T11:23:30.019Z,15.65
2017-04-28T11:24:29.960Z,15.55
2017-04-28T11:25:29.900Z,15.36
2017-04-28T11:26:29.836Z,15.07
2017-04-28T11:27:29.772Z,15.26
2017-04-28T11:28:29.714Z,14.97
2017-04-28T11:29:29.647Z,15.26
2017-04-28T11:30:29.586Z,15.26
2017-04-28T11:31:29.529Z,14.78
2017-04-28T11:32:29.470Z,14.77
2017-04-28T11:33:29.405Z,14.97
2017-04-28T11:34:29.337Z,14.97
2017-04-28T11:35:29.274Z,14.87
2017-04-28T11:36:29.213Z,14.97
2017-04-28T11:37:29.149Z,14.78
2017-04-28T11:38:29.092Z,15.35
2017-04-28T11:39:29.025Z,15.26
2017-04-28T11:40:28.966Z,14.87
2017-04-28T11:41:28.902Z,14.97
2017-04-28T11:42:28.839Z,15.45
2017-04-28T11:43:28.780Z,15.45
2017-04-28T11:44:28.716Z,15.45
2017-04-28T11:45:28.653Z,14.77
2017-04-28T11:46:28.591Z,15.17
2017-04-28T11:47:28.529Z,15.35
2017-04-28T11:48:28.465Z,15.55
2017-04-28T11:49:28.409Z,15.55
2017-04-28T11:50:28.442Z,15.26
2017-04-28T11:51:27.977Z,15.25
2017-04-28T11:52:27.913Z,15.35
2017-04-28T11:53:28.161Z,15.26
2017-04-28T11:54:28.093Z,15.45
2017-04-28T11:55:28.131Z,15.25
2017-04-28T11:56:27.971Z,14.77
2017-04-28T11:57:27.905Z,14.87
2017-04-28T11:58:27.846Z,14.87
2017-04-28T11:59:27.797Z,14.77
2017-04-28T12:00:27.718Z,15.16
2017-04-28T12:01:27.655Z,15.06
2017-04-28T12:02:27.599Z,14.77
2017-04-28T12:03:27.531Z,14.87
2017-04-28T12:04:27.469Z,14.77
2017-04-28T12:05:27.416Z,14.77
2017-04-28T12:06:27.348Z,15.35
2017-04-28T12:07:27.284Z,15.25
2017-04-28T12:08:27.229Z,15.16
2017-04-28T12:09:26.877Z,15.25
2017-04-28T12:10:27.094Z,15.35
2017-04-28T12:11:27.033Z,14.87
2017-04-28T12:12:26.973Z,14.97
2017-04-28T12:13:26.910Z,15.16
2017-04-28T12:14:26.847Z,15.25
2017-04-28T12:15:26.785Z,14.97
2017-04-28T12:16:26.727Z,15.35
2017-04-28T12:17:26.663Z,14.77
2017-04-28T12:18:26.597Z,15.06
2017-04-28T12:19:26.534Z,14.87
2017-04-28T12:20:26.472Z,15.25
2017-04-28T12:21:26.410Z,14.77
2017-04-28T12:22:26.347Z,14.77
2017-04-28T12:23:26.288Z,15.06
2017-04-28T12:24:26.223Z,14.87
2017-04-28T12:25:26.159Z,15.16
2017-04-28T12:26:26.097Z,15.25
2017-04-28T12:27:26.039Z,15.35
2017-04-28T12:28:25.972Z,15.06
2017-04-28T12:29:25.910Z,15.25
2017-04-28T12:30:25.849Z,15.55
2017-04-28T12:31:25.787Z,15.64
2017-04-28T12:32:25.724Z,15.35
2017-04-28T12:33:25.660Z,15.55
2017-04-28T12:34:25.608Z,15.73
2017-04-28T12:35:25.538Z,15.64
2017-04-28T12:36:25.474Z,15.73
2017-04-28T12:37:25.412Z,15.64
2017-04-28T12:38:25.361Z,15.55
2017-04-28T12:39:25.287Z,15.73
2017-04-28T12:40:25.223Z,15.73
2017-04-28T12:41:25.162Z,15.64
2017-04-28T12:42:25.100Z,15.83
2017-04-28T12:43:25.050Z,15.83
2017-04-28T12:44:24.981Z,15.55
2017-04-28T12:45:24.911Z,15.55
2017-04-28T12:46:24.852Z,15.73
2017-04-28T12:47:24.788Z,15.83
2017-04-28T12:48:24.729Z,15.73
2017-04-28T12:49:24.665Z,15.73
2017-04-28T12:50:24.599Z,15.73
2017-04-28T12:51:24.537Z,15.73
2017-04-28T12:52:24.477Z,15.55
2017-04-28T12:53:24.423Z,15.73
2017-04-28T12:54:24.351Z,15.64
2017-04-28T12:55:24.290Z,15.93
2017-04-28T12:56:24.226Z,15.55